»·PEaware :: N795KB KPHX-KBXK

N795KB :: KPHX-KBXK

FLIGHT INFORMATION

Flight Status: Arrived
Operator: Privately registered:
United States
More flights under this callsign
Pilot: Kevin B. (8904)
Aircraft: BEECH AIRCRAFT SUPER KING AIR COMMUTER
(BE20)
More flights by this aircraft type
Origin: KPHX Phoenix Sky Harbor Intl
United States
Destination: KBXK Buckeye Mun
United States
More flights between these airports :: More routes between these airports
Route: DIRECT
File this flight plan on PilotEdge
Remarks:
Altitude:
(Current/Filed)
4,500ft
Speed:
(Current/Filed)
240kts
Departed: 05-Sep-17 10:39 AM
Arrived: 05-Sep-17 10:58 AM
Distance/Time
Traveled:
34nm/0:18
Distance/Time
To Go:
Arrived

Flight Plot

Page will automatically refresh every two minutes.


Map Options




Map Legend


Flown Route
Filed Route
Departure Airport
Arrival Airport
Navaid (VOR, NDB)
Fix

Horizontal Profiles

Position Reports

Time Latitude Longitude Heading Altitude Ground
Speed
05-Sep-17 10:05 33.427083 -112.021673 180 1113ft 0kts
05-Sep-17 10:06 33.427083 -112.021673 180 1113ft 0kts
05-Sep-17 10:07 33.427083 -112.021673 180 1113ft 0kts
05-Sep-17 10:08 33.427083 -112.021673 180 1113ft 0kts
05-Sep-17 10:09 33.427083 -112.021673 180 1113ft 0kts
05-Sep-17 10:10 33.427083 -112.021673 180 1113ft 0kts
05-Sep-17 10:11 33.427083 -112.021673 180 1113ft 0kts
05-Sep-17 10:12 33.427083 -112.021673 180 1113ft 0kts
05-Sep-17 10:13 33.427083 -112.021673 180 1113ft 0kts
05-Sep-17 10:14 33.427083 -112.021673 180 1113ft 0kts
05-Sep-17 10:15 33.427083 -112.021673 180 1113ft 0kts
05-Sep-17 10:16 33.427083 -112.021673 180 1113ft 0kts
05-Sep-17 10:17 33.427083 -112.021673 180 1113ft 0kts
05-Sep-17 10:18 33.427083 -112.021673 180 1113ft 0kts
05-Sep-17 10:19 33.427083 -112.021673 180 1113ft 0kts
05-Sep-17 10:20 33.427083 -112.021673 180 1113ft 0kts
05-Sep-17 10:21 33.427083 -112.021673 180 1113ft 0kts
05-Sep-17 10:22 33.427083 -112.021673 180 1113ft 0kts
05-Sep-17 10:23 33.427083 -112.021673 180 1113ft 0kts
05-Sep-17 10:24 33.427083 -112.021673 180 1113ft 0kts
05-Sep-17 10:25 33.427083 -112.021673 180 1113ft 0kts
05-Sep-17 10:26 33.427083 -112.021673 180 1113ft 0kts
05-Sep-17 10:27 33.427083 -112.021673 180 1113ft 0kts
05-Sep-17 10:28 33.427083 -112.021673 180 1113ft 0kts
05-Sep-17 10:29 33.427083 -112.021673 180 1113ft 0kts
05-Sep-17 10:30 33.427083 -112.021673 180 1113ft 0kts
05-Sep-17 10:31 33.427083 -112.021673 180 1113ft 0kts
05-Sep-17 10:32 33.427083 -112.021673 180 1113ft 0kts
05-Sep-17 10:33 33.427083 -112.021673 180 1113ft 0kts
05-Sep-17 10:34 33.427083 -112.021673 180 1113ft 0kts
05-Sep-17 10:35 33.427083 -112.021673 180 1113ft 0kts
05-Sep-17 10:36 33.427083 -112.021673 180 1113ft 0kts
05-Sep-17 10:37 33.427083 -112.021673 180 1113ft 0kts
05-Sep-17 10:38 33.427083 -112.021673 180 1113ft 0kts
05-Sep-17 10:39 33.427083 -112.021673 180 1113ft 0kts
05-Sep-17 10:40 33.427699 -112.025630 269 1111ft 16kts
05-Sep-17 10:41 33.427837 -112.026758 316 1109ft 0kts
05-Sep-17 10:42 33.428889 -112.026476 84 1110ft 0kts
05-Sep-17 10:43 33.428958 -112.010048 91 1320ft 140kts
05-Sep-17 10:44 33.409044 -111.967121 141 3034ft 173kts
05-Sep-17 10:45 33.370307 -111.931035 142 4486ft 187kts
05-Sep-17 10:46 33.320369 -111.906304 211 4518ft 231kts
05-Sep-17 10:47 33.288127 -111.973120 242 4510ft 243kts
05-Sep-17 10:48 33.258228 -112.045662 242 4505ft 244kts
05-Sep-17 10:49 33.229186 -112.118631 245 4504ft 244kts
05-Sep-17 10:50 33.225602 -112.198689 266 4504ft 247kts
05-Sep-17 10:51 33.221393 -112.280284 266 4502ft 248kts
05-Sep-17 10:52 33.188190 -112.349920 231 4501ft 248kts
05-Sep-17 10:53 33.145894 -112.414636 231 4504ft 248kts
05-Sep-17 10:54 33.105897 -112.480409 253 4480ft 249kts
05-Sep-17 10:55 33.139347 -112.539444 337 4502ft 213kts
05-Sep-17 10:56 33.190803 -112.565977 337 4504ft 195kts
05-Sep-17 10:57 33.240067 -112.591479 337 4175ft 199kts
05-Sep-17 10:58 33.292370 -112.617626 337 3391ft 209kts
05-Sep-17 10:59 33.340911 -112.646626 320 2774ft 162kts
05-Sep-17 11:00 33.368214 -112.684845 324 2001ft 132kts
05-Sep-17 11:01 33.401497 -112.687121 5 1334ft 119kts
05-Sep-17 11:02 33.420898 -112.685160 92 1006ft 15kts
05-Sep-17 11:03 33.420401 -112.684496 86 1005ft 0kts

Navigation Log

Ident Type
Flight plan parsing failed, navigation log unavailable